Airfield :
LOGIN :

Register | Disclaimer

   EN    FR    IT 

 










Legend :    VFR   Marginal VFR   IFR   Intensive IFR   Very Intensive IFR
Visi :
Ceiling :
>= 8 km
>= 3000ft
5 to 8 km
1000 to 3000 ft
1500m to 5 km
500 to 1000 ft
800 to 1500m
200 to 500 ft
< 800m
< 200 ft
Symbols :   Thunderstorms  Fog  Heavy snow  Heavy precipitations  Wind > 20 kt
SIGMETs :     Misc.  Thunderstorms  Icing  Turbulence  Mountain Waves  Volcanic Ashes






- Airport Elevation : 302 ft
- IATA code : CGN


EDDK - Cologne Bonn

CURRENT METAR :
  • 140650Z 28021KT 9999 BKN012 06/04 Q0985 BECMG 27012KT BKN020

EXPIRED METARs :
  • 140620Z 26017G27KT 230V300 9999 -RA BKN012 07/06 Q0983 TEMPO 27020G35KT BKN007
  • 140550Z 21008KT 180V240 9999 -RA FEW013 OVC018 05/04 Q0981 BECMG 27015G30KT BKN012
  • 140520Z 17010KT 9999 -RA FEW009 OVC020 05/03 Q0981 RERA BECMG 27015G25KT
  • 140450Z 17011KT 9999 RA FEW012 BKN027 05/03 Q0981 BECMG NSW
  • 140420Z 15010KT 9999 -RA FEW011 BKN026 04/03 Q0981 NOSIG

TAF TAF EDDK
Valid from the 14 at 06:00 until the 15 at 12:00 UTC


140500Z 1406/1512 17010KT 9999 BKN020
TEMPO 1406/1409 4000 -SHRA BKN012TCU
BECMG 1407/1410 25015G25KT
TEMPO 1409/1411 26020G35KT SHRA BKN014TCU
TEMPO 1411/1414 26020G30KT
TEMPO 1414/1418 26020G35KT SHRA BKN020TCU
BECMG 1419/1422 16008KT
PROB30
TEMPO 1503/1508 24015G25KT SHRA BKN015TCU
BECMG 1508/1511 24010KT



MET'MAP, your aeronautical weather chart ! - Copyright ORBIFLY December 2007 - Disclaimer

ORBIFLY MET'MAP TEAM :

Programming & Development : Alexandra Zaïnal
Concept & original design : Baudouin d'Aumeries
Assistance for programming : Marc-Olivier Méhu
Technical & hardware support : Manuel Goepfert

Contact : metmap@orbifly.com




SOURCES & CREDITS :

   NOAA